sensor_id;sensor_type;location;lat;lon;timestamp;pressure;altitude;pressure_sealevel;temperature;humidity
46714;BME280;32445;51.376;10.874;2023-05-25T00:00:17;100220.00;;;12.16;45.96
46714;BME280;32445;51.376;10.874;2023-05-25T00:03:18;100217.56;;;12.10;46.32
46714;BME280;32445;51.376;10.874;2023-05-25T00:06:19;100228.06;;;12.05;46.60
46714;BME280;32445;51.376;10.874;2023-05-25T00:09:20;100224.66;;;12.02;46.11
46714;BME280;32445;51.376;10.874;2023-05-25T00:12:20;100220.44;;;11.96;46.31
46714;BME280;32445;51.376;10.874;2023-05-25T00:15:21;100225.69;;;11.91;46.33
46714;BME280;32445;51.376;10.874;2023-05-25T00:18:21;100219.75;;;11.85;46.79
46714;BME280;32445;51.376;10.874;2023-05-25T00:21:23;100218.13;;;11.79;46.68
46714;BME280;32445;51.376;10.874;2023-05-25T00:24:24;100219.09;;;11.75;46.31
46714;BME280;32445;51.376;10.874;2023-05-25T00:27:25;100220.94;;;11.70;46.59
46714;BME280;32445;51.376;10.874;2023-05-25T00:30:25;100218.41;;;11.65;46.73
46714;BME280;32445;51.376;10.874;2023-05-25T00:33:25;100215.91;;;11.60;46.53
46714;BME280;32445;51.376;10.874;2023-05-25T00:36:26;100220.31;;;11.57;46.92
46714;BME280;32445;51.376;10.874;2023-05-25T00:39:26;100224.72;;;11.52;47.01
46714;BME280;32445;51.376;10.874;2023-05-25T00:42:28;100229.16;;;11.47;46.62
46714;BME280;32445;51.376;10.874;2023-05-25T00:45:29;100222.31;;;11.42;46.55
46714;BME280;32445;51.376;10.874;2023-05-25T00:48:30;100220.63;;;11.38;47.02
46714;BME280;32445;51.376;10.874;2023-05-25T00:51:30;100214.66;;;11.33;47.00
46714;BME280;32445;51.376;10.874;2023-05-25T00:54:32;100223.44;;;11.28;46.86
46714;BME280;32445;51.376;10.874;2023-05-25T00:57:34;100220.06;;;11.22;46.98
46714;BME280;32445;51.376;10.874;2023-05-25T01:00:41;100223.59;;;11.18;47.45
46714;BME280;32445;51.376;10.874;2023-05-25T01:03:45;100224.50;;;11.14;47.38
46714;BME280;32445;51.376;10.874;2023-05-25T01:06:53;100223.75;;;11.09;47.63
46714;BME280;32445;51.376;10.874;2023-05-25T01:09:58;100228.97;;;11.06;47.16
46714;BME280;32445;51.376;10.874;2023-05-25T01:13:01;100229.06;;;11.01;47.42
46714;BME280;32445;51.376;10.874;2023-05-25T01:16:03;100233.44;;;10.99;47.46
46714;BME280;32445;51.376;10.874;2023-05-25T01:19:04;100226.56;;;10.95;46.80
46714;BME280;32445;51.376;10.874;2023-05-25T01:25:25;100227.59;;;10.85;47.49
46714;BME280;32445;51.376;10.874;2023-05-25T01:28:32;100227.66;;;10.80;47.47
46714;BME280;32445;51.376;10.874;2023-05-25T01:31:35;100230.31;;;10.77;47.69
46714;BME280;32445;51.376;10.874;2023-05-25T01:34:36;100226.94;;;10.72;47.97
46714;BME280;32445;51.376;10.874;2023-05-25T01:37:44;100227.84;;;10.68;47.74
46714;BME280;32445;51.376;10.874;2023-05-25T01:40:45;100229.63;;;10.64;47.61
46714;BME280;32445;51.376;10.874;2023-05-25T01:43:46;100236.63;;;10.61;47.83
46714;BME280;32445;51.376;10.874;2023-05-25T01:46:49;100234.94;;;10.56;48.48
46714;BME280;32445;51.376;10.874;2023-05-25T01:50:12;100230.66;;;10.54;48.06
46714;BME280;32445;51.376;10.874;2023-05-25T01:53:18;100221.19;;;10.50;47.65
46714;BME280;32445;51.376;10.874;2023-05-25T01:56:22;100229.88;;;10.47;47.22
46714;BME280;32445;51.376;10.874;2023-05-25T01:59:25;100235.09;;;10.44;47.43
46714;BME280;32445;51.376;10.874;2023-05-25T02:02:26;100230.00;;;10.38;47.57
46714;BME280;32445;51.376;10.874;2023-05-25T02:05:27;100227.47;;;10.35;47.75
46714;BME280;32445;51.376;10.874;2023-05-25T02:08:27;100229.22;;;10.30;47.89
46714;BME280;32445;51.376;10.874;2023-05-25T02:11:28;100232.72;;;10.26;47.58
46714;BME280;32445;51.376;10.874;2023-05-25T02:14:28;100229.34;;;10.22;48.18
46714;BME280;32445;51.376;10.874;2023-05-25T02:17:29;100227.63;;;10.19;47.56
46714;BME280;32445;51.376;10.874;2023-05-25T02:20:29;100208.66;;;10.14;47.90
46714;BME280;32445;51.376;10.874;2023-05-25T02:23:30;100207.84;;;10.11;47.97
46714;BME280;32445;51.376;10.874;2023-05-25T02:26:30;100208.75;;;10.08;48.13
46714;BME280;32445;51.376;10.874;2023-05-25T02:29:31;100211.38;;;10.05;48.15
46714;BME280;32445;51.376;10.874;2023-05-25T02:32:31;100208.81;;;10.02;48.73
46714;BME280;32445;51.376;10.874;2023-05-25T02:35:32;100203.69;;;9.99;48.62
46714;BME280;32445;51.376;10.874;2023-05-25T02:38:33;100204.56;;;9.96;48.59
46714;BME280;32445;51.376;10.874;2023-05-25T02:41:33;100208.06;;;9.94;48.78
46714;BME280;32445;51.376;10.874;2023-05-25T02:44:34;100202.94;;;9.89;48.37
46714;BME280;32445;51.376;10.874;2023-05-25T02:47:34;100210.75;;;9.86;48.31
46714;BME280;32445;51.376;10.874;2023-05-25T02:50:35;100208.22;;;9.83;48.27
46714;BME280;32445;51.376;10.874;2023-05-25T02:53:36;100215.16;;;9.79;48.33
46714;BME280;32445;51.376;10.874;2023-05-25T02:56:36;100227.31;;;9.76;48.54
46714;BME280;32445;51.376;10.874;2023-05-25T02:59:36;100223.03;;;9.72;48.37
46714;BME280;32445;51.376;10.874;2023-05-25T03:02:37;100229.09;;;9.69;48.30
46714;BME280;32445;51.376;10.874;2023-05-25T03:05:37;100234.31;;;9.66;48.28
46714;BME280;32445;51.376;10.874;2023-05-25T03:08:39;100227.44;;;9.63;49.03
46714;BME280;32445;51.376;10.874;2023-05-25T03:11:39;100230.91;;;9.61;48.65
46714;BME280;32445;51.376;10.874;2023-05-25T03:14:40;100239.53;;;9.60;48.47
46714;BME280;32445;51.376;10.874;2023-05-25T03:17:40;100234.41;;;9.55;48.84
46714;BME280;32445;51.376;10.874;2023-05-25T03:20:40;100235.28;;;9.52;48.68
46714;BME280;32445;51.376;10.874;2023-05-25T03:23:41;100241.41;;;9.50;48.51
46714;BME280;32445;51.376;10.874;2023-05-25T03:26:41;100240.53;;;9.48;48.36
46714;BME280;32445;51.376;10.874;2023-05-25T03:29:41;100240.56;;;9.45;48.44
46714;BME280;32445;51.376;10.874;2023-05-25T03:32:42;100251.81;;;9.42;48.60
46714;BME280;32445;51.376;10.874;2023-05-25T03:35:42;100253.56;;;9.40;48.43
46714;BME280;32445;51.376;10.874;2023-05-25T03:38:43;100258.78;;;9.39;48.63
46714;BME280;32445;51.376;10.874;2023-05-25T03:41:44;100266.56;;;9.35;49.01
46714;BME280;32445;51.376;10.874;2023-05-25T03:44:44;100264.84;;;9.34;49.25
46714;BME280;32445;51.376;10.874;2023-05-25T03:47:45;100266.59;;;9.32;48.71
46714;BME280;32445;51.376;10.874;2023-05-25T03:50:47;100273.53;;;9.30;49.10
46714;BME280;32445;51.376;10.874;2023-05-25T03:53:47;100264.91;;;9.30;49.29
46714;BME280;32445;51.376;10.874;2023-05-25T03:56:47;100262.31;;;9.30;49.32
46714;BME280;32445;51.376;10.874;2023-05-25T03:59:48;100267.50;;;9.30;49.39
46714;BME280;32445;51.376;10.874;2023-05-25T04:02:48;100262.31;;;9.30;49.30
46714;BME280;32445;51.376;10.874;2023-05-25T04:05:49;100277.84;;;9.30;49.73
46714;BME280;32445;51.376;10.874;2023-05-25T04:08:52;100272.69;;;9.30;50.03
46714;BME280;32445;51.376;10.874;2023-05-25T04:11:52;100274.38;;;9.31;50.33
46714;BME280;32445;51.376;10.874;2023-05-25T04:14:53;100281.28;;;9.32;50.60
46714;BME280;32445;51.376;10.874;2023-05-25T04:17:53;100272.69;;;9.30;50.80
46714;BME280;32445;51.376;10.874;2023-05-25T04:20:54;100276.97;;;9.31;50.87
46714;BME280;32445;51.376;10.874;2023-05-25T04:23:56;100276.97;;;9.31;51.60
46714;BME280;32445;51.376;10.874;2023-05-25T04:26:56;100286.47;;;9.32;51.66
46714;BME280;32445;51.376;10.874;2023-05-25T04:29:57;100265.72;;;9.33;51.38
46714;BME280;32445;51.376;10.874;2023-05-25T04:32:57;100280.41;;;9.34;51.19
46714;BME280;32445;51.376;10.874;2023-05-25T04:36:01;100270.88;;;9.37;51.19
46714;BME280;32445;51.376;10.874;2023-05-25T04:39:03;100290.72;;;9.39;51.22
46714;BME280;32445;51.376;10.874;2023-05-25T04:42:05;100293.28;;;9.41;51.20
46714;BME280;32445;51.376;10.874;2023-05-25T04:45:06;100303.66;;;9.42;51.07
46714;BME280;32445;51.376;10.874;2023-05-25T04:48:09;100299.31;;;9.44;51.30
46714;BME280;32445;51.376;10.874;2023-05-25T04:51:09;100301.00;;;9.47;51.12
46714;BME280;32445;51.376;10.874;2023-05-25T04:54:10;100298.41;;;9.47;51.11
46714;BME280;32445;51.376;10.874;2023-05-25T04:57:11;100300.13;;;9.48;51.41
46714;BME280;32445;51.376;10.874;2023-05-25T05:00:13;100307.91;;;9.49;51.70
46714;BME280;32445;51.376;10.874;2023-05-25T05:03:14;100301.00;;;9.50;51.52
46714;BME280;32445;51.376;10.874;2023-05-25T05:06:15;100313.94;;;9.53;51.82
46714;BME280;32445;51.376;10.874;2023-05-25T05:09:15;100302.69;;;9.52;51.73
46714;BME280;32445;51.376;10.874;2023-05-25T05:12:16;100306.97;;;9.55;52.38
46714;BME280;32445;51.376;10.874;2023-05-25T05:15:17;100305.25;;;9.57;51.91
46714;BME280;32445;51.376;10.874;2023-05-25T05:18:18;100304.34;;;9.60;51.97
46714;BME280;32445;51.376;10.874;2023-05-25T05:21:18;100310.41;;;9.60;52.06
46714;BME280;32445;51.376;10.874;2023-05-25T05:24:18;100308.69;;;9.59;52.63
46714;BME280;32445;51.376;10.874;2023-05-25T05:27:19;100304.34;;;9.63;52.22
46714;BME280;32445;51.376;10.874;2023-05-25T05:30:20;100311.22;;;9.65;52.73
46714;BME280;32445;51.376;10.874;2023-05-25T05:33:21;100308.59;;;9.67;52.62
46714;BME280;32445;51.376;10.874;2023-05-25T05:36:23;100311.16;;;9.72;52.73
46714;BME280;32445;51.376;10.874;2023-05-25T05:39:25;100321.53;;;9.73;53.51
46714;BME280;32445;51.376;10.874;2023-05-25T05:42:26;100324.94;;;9.77;53.40
46714;BME280;32445;51.376;10.874;2023-05-25T05:45:26;100334.44;;;9.78;53.78
46714;BME280;32445;51.376;10.874;2023-05-25T05:48:26;100327.47;;;9.80;54.03
46714;BME280;32445;51.376;10.874;2023-05-25T05:51:27;100316.25;;;9.81;54.54
46714;BME280;32445;51.376;10.874;2023-05-25T05:54:27;100324.00;;;9.84;54.26
46714;BME280;32445;51.376;10.874;2023-05-25T05:57:28;100323.09;;;9.86;54.07
46714;BME280;32445;51.376;10.874;2023-05-25T06:00:32;100324.81;;;9.89;54.68
46714;BME280;32445;51.376;10.874;2023-05-25T06:03:33;100333.44;;;9.91;55.23
46714;BME280;32445;51.376;10.874;2023-05-25T06:06:33;100342.91;;;9.94;55.33
46714;BME280;32445;51.376;10.874;2023-05-25T06:09:34;100337.69;;;9.98;55.82
46714;BME280;32445;51.376;10.874;2023-05-25T06:12:34;100341.94;;;10.04;55.79
46714;BME280;32445;51.376;10.874;2023-05-25T06:15:35;100350.56;;;10.08;56.29
46714;BME280;32445;51.376;10.874;2023-05-25T06:18:35;100351.38;;;10.11;57.44
46714;BME280;32445;51.376;10.874;2023-05-25T06:21:36;100352.19;;;10.16;58.37
46714;BME280;32445;51.376;10.874;2023-05-25T06:24:36;100349.53;;;10.21;58.32
46714;BME280;32445;51.376;10.874;2023-05-25T06:27:37;100356.44;;;10.25;59.17
46714;BME280;32445;51.376;10.874;2023-05-25T06:30:37;100355.47;;;10.32;59.24
46714;BME280;32445;51.376;10.874;2023-05-25T06:33:38;100345.94;;;10.39;59.42
46714;BME280;32445;51.376;10.874;2023-05-25T06:36:38;100346.69;;;10.46;59.53
46714;BME280;32445;51.376;10.874;2023-05-25T06:39:38;100355.28;;;10.52;59.93
46714;BME280;32445;51.376;10.874;2023-05-25T06:42:40;100352.56;;;10.60;60.36
46714;BME280;32445;51.376;10.874;2023-05-25T06:45:40;100349.00;;;10.67;60.50
46714;BME280;32445;51.376;10.874;2023-05-25T06:48:41;100355.00;;;10.74;60.06
46714;BME280;32445;51.376;10.874;2023-05-25T06:51:41;100355.78;;;10.81;60.85
46714;BME280;32445;51.376;10.874;2023-05-25T06:54:41;100358.25;;;10.90;61.40
46714;BME280;32445;51.376;10.874;2023-05-25T06:57:42;100353.84;;;10.97;60.74
46714;BME280;32445;51.376;10.874;2023-05-25T07:00:45;100341.59;;;11.05;61.46
46714;BME280;32445;51.376;10.874;2023-05-25T07:03:45;100348.41;;;11.14;61.55
46714;BME280;32445;51.376;10.874;2023-05-25T07:06:45;100345.63;;;11.23;61.07
46714;BME280;32445;51.376;10.874;2023-05-25T07:09:47;100345.53;;;11.31;61.10
46714;BME280;32445;51.376;10.874;2023-05-25T07:12:47;100342.78;;;11.40;61.47
46714;BME280;32445;51.376;10.874;2023-05-25T07:15:48;100341.78;;;11.49;61.13
46714;BME280;32445;51.376;10.874;2023-05-25T07:18:48;100336.44;;;11.58;61.57
46714;BME280;32445;51.376;10.874;2023-05-25T07:21:49;100345.81;;;11.67;61.89
46714;BME280;32445;51.376;10.874;2023-05-25T07:24:49;100344.78;;;11.75;61.80
46714;BME280;32445;51.376;10.874;2023-05-25T07:27:50;100339.41;;;11.85;61.23
46714;BME280;32445;51.376;10.874;2023-05-25T07:30:54;100342.75;;;11.93;61.27
46714;BME280;32445;51.376;10.874;2023-05-25T07:33:54;100340.91;;;12.01;60.89
46714;BME280;32445;51.376;10.874;2023-05-25T07:36:57;100345.94;;;12.09;60.97
46714;BME280;32445;51.376;10.874;2023-05-25T07:39:58;100349.25;;;12.19;61.20
46714;BME280;32445;51.376;10.874;2023-05-25T07:42:58;100344.72;;;12.28;60.77
46714;BME280;32445;51.376;10.874;2023-05-25T07:45:59;100345.38;;;12.40;60.71
46714;BME280;32445;51.376;10.874;2023-05-25T07:49:01;100347.81;;;12.46;60.74
46714;BME280;32445;51.376;10.874;2023-05-25T07:52:02;100349.31;;;12.58;60.52
46714;BME280;32445;51.376;10.874;2023-05-25T07:55:05;100346.53;;;12.67;60.04
46714;BME280;32445;51.376;10.874;2023-05-25T07:58:06;100354.09;;;12.79;60.44
46714;BME280;32445;51.376;10.874;2023-05-25T08:01:07;100349.50;;;12.89;59.62
46714;BME280;32445;51.376;10.874;2023-05-25T08:04:08;100344.13;;;12.98;58.92
46714;BME280;32445;51.376;10.874;2023-05-25T08:07:08;100346.50;;;13.08;58.56
46714;BME280;32445;51.376;10.874;2023-05-25T08:10:08;100344.50;;;13.19;58.85
46714;BME280;32445;51.376;10.874;2023-05-25T08:13:09;100352.03;;;13.31;58.92
46714;BME280;32445;51.376;10.874;2023-05-25T08:16:10;100346.63;;;13.41;58.50
46714;BME280;32445;51.376;10.874;2023-05-25T08:19:10;100345.53;;;13.51;58.33
46714;BME280;32445;51.376;10.874;2023-05-25T08:22:11;100341.78;;;13.61;58.18
46714;BME280;32445;51.376;10.874;2023-05-25T08:25:11;100345.03;;;13.70;57.49
46714;BME280;32445;51.376;10.874;2023-05-25T08:28:11;100345.69;;;13.78;57.00
46714;BME280;32445;51.376;10.874;2023-05-25T08:31:12;100344.59;;;13.87;56.79
46714;BME280;32445;51.376;10.874;2023-05-25T08:34:15;100343.47;;;13.97;56.98
46714;BME280;32445;51.376;10.874;2023-05-25T08:37:16;100346.63;;;14.08;56.56
46714;BME280;32445;51.376;10.874;2023-05-25T08:40:18;100349.84;;;14.18;56.26
46714;BME280;32445;51.376;10.874;2023-05-25T08:43:21;100346.03;;;14.30;55.75
46714;BME280;32445;51.376;10.874;2023-05-25T08:46:29;100342.28;;;14.40;54.90
46714;BME280;32445;51.376;10.874;2023-05-25T08:49:43;100343.69;;;14.52;54.88
46714;BME280;32445;51.376;10.874;2023-05-25T08:52:44;100353.84;;;14.63;54.36
46714;BME280;32445;51.376;10.874;2023-05-25T08:55:55;100353.50;;;14.75;53.67
46714;BME280;32445;51.376;10.874;2023-05-25T09:00:08;100356.63;;;14.86;53.33
46714;BME280;32445;51.376;10.874;2023-05-25T09:03:15;100359.50;;;15.07;53.30
46714;BME280;32445;51.376;10.874;2023-05-25T09:06:23;100358.91;;;15.26;52.97
46714;BME280;32445;51.376;10.874;2023-05-25T09:09:28;100360.16;;;15.42;52.55
46714;BME280;32445;51.376;10.874;2023-05-25T09:12:29;100355.16;;;15.61;51.95
46714;BME280;32445;51.376;10.874;2023-05-25T09:15:31;100361.66;;;15.76;50.70
46714;BME280;32445;51.376;10.874;2023-05-25T09:18:31;100362.75;;;15.96;50.12
46714;BME280;32445;51.376;10.874;2023-05-25T09:21:32;100364.72;;;16.14;50.02
46714;BME280;32445;51.376;10.874;2023-05-25T09:24:33;100365.78;;;16.34;49.94
46714;BME280;32445;51.376;10.874;2023-05-25T09:27:35;100366.00;;;16.51;49.10
46714;BME280;32445;51.376;10.874;2023-05-25T09:30:42;100360.31;;;16.64;48.09
46714;BME280;32445;51.376;10.874;2023-05-25T09:33:42;100363.28;;;16.78;48.03
46714;BME280;32445;51.376;10.874;2023-05-25T09:36:43;100366.91;;;16.98;47.81
46714;BME280;32445;51.376;10.874;2023-05-25T09:39:43;100360.28;;;17.11;47.11
46714;BME280;32445;51.376;10.874;2023-05-25T09:42:50;100355.16;;;17.30;46.38
46714;BME280;32445;51.376;10.874;2023-05-25T09:45:51;100353.63;;;17.46;45.64
46714;BME280;32445;51.376;10.874;2023-05-25T09:48:52;100353.94;;;17.59;45.14
46714;BME280;32445;51.376;10.874;2023-05-25T09:51:52;100352.72;;;17.68;44.87
46714;BME280;32445;51.376;10.874;2023-05-25T09:54:53;100361.00;;;17.79;45.09
46714;BME280;32445;51.376;10.874;2023-05-25T09:57:55;100356.75;;;17.97;45.64
46714;BME280;32445;51.376;10.874;2023-05-25T10:00:56;100364.88;;;18.12;45.22
46714;BME280;32445;51.376;10.874;2023-05-25T10:03:56;100357.38;;;18.23;44.97
46714;BME280;32445;51.376;10.874;2023-05-25T10:06:59;100367.16;;;18.40;44.46
46714;BME280;32445;51.376;10.874;2023-05-25T10:10:05;100369.94;;;18.56;44.82
46714;BME280;32445;51.376;10.874;2023-05-25T10:13:07;100361.97;;;18.77;44.70
46714;BME280;32445;51.376;10.874;2023-05-25T10:16:08;100367.13;;;18.99;44.76
46714;BME280;32445;51.376;10.874;2023-05-25T10:19:18;100368.88;;;19.17;44.43
46714;BME280;32445;51.376;10.874;2023-05-25T10:22:59;100365.16;;;19.22;42.95
46714;BME280;32445;51.376;10.874;2023-05-25T10:26:04;100365.84;;;19.25;42.35
46714;BME280;32445;51.376;10.874;2023-05-25T10:29:06;100355.66;;;19.36;42.27
46714;BME280;32445;51.376;10.874;2023-05-25T10:32:08;100357.53;;;19.52;42.71
46714;BME280;32445;51.376;10.874;2023-05-25T10:35:08;100355.81;;;19.68;42.26
46714;BME280;32445;51.376;10.874;2023-05-25T10:38:11;100357.34;;;19.92;41.51
46714;BME280;32445;51.376;10.874;2023-05-25T10:41:14;100353.50;;;20.15;40.94
46714;BME280;32445;51.376;10.874;2023-05-25T10:44:18;100354.50;;;20.46;40.52
46714;BME280;32445;51.376;10.874;2023-05-25T10:47:19;100350.16;;;20.78;40.68
46714;BME280;32445;51.376;10.874;2023-05-25T10:50:25;100348.59;;;21.06;40.49
46714;BME280;32445;51.376;10.874;2023-05-25T10:53:32;100341.16;;;21.29;39.10
46714;BME280;32445;51.376;10.874;2023-05-25T10:56:35;100347.34;;;21.43;39.29
46714;BME280;32445;51.376;10.874;2023-05-25T10:59:40;100351.28;;;21.52;39.28
46714;BME280;32445;51.376;10.874;2023-05-25T11:02:50;100343.56;;;21.64;38.95
46714;BME280;32445;51.376;10.874;2023-05-25T11:05:57;100349.00;;;21.76;39.01
46714;BME280;32445;51.376;10.874;2023-05-25T11:08:59;100342.84;;;21.90;38.74
46714;BME280;32445;51.376;10.874;2023-05-25T11:12:01;100336.94;;;22.01;38.12
46714;BME280;32445;51.376;10.874;2023-05-25T11:15:12;100342.50;;;21.97;37.94
46714;BME280;32445;51.376;10.874;2023-05-25T11:18:21;100337.03;;;22.00;37.83
46714;BME280;32445;51.376;10.874;2023-05-25T11:21:40;100339.88;;;21.97;38.81
46714;BME280;32445;51.376;10.874;2023-05-25T11:24:42;100338.56;;;22.18;37.91
46714;BME280;32445;51.376;10.874;2023-05-25T11:27:47;100339.09;;;22.52;37.51
46714;BME280;32445;51.376;10.874;2023-05-25T11:30:47;100334.06;;;22.76;37.27
46714;BME280;32445;51.376;10.874;2023-05-25T11:33:48;100331.56;;;22.88;36.38
46714;BME280;32445;51.376;10.874;2023-05-25T11:36:57;100329.19;;;22.97;36.64
46714;BME280;32445;51.376;10.874;2023-05-25T11:40:05;100329.94;;;22.99;35.14
46714;BME280;32445;51.376;10.874;2023-05-25T11:43:06;100329.75;;;23.03;35.11
46714;BME280;32445;51.376;10.874;2023-05-25T11:46:10;100329.31;;;23.23;36.30
46714;BME280;32445;51.376;10.874;2023-05-25T11:49:11;100329.16;;;23.52;35.99
46714;BME280;32445;51.376;10.874;2023-05-25T11:52:13;100331.63;;;23.81;34.78
46714;BME280;32445;51.376;10.874;2023-05-25T11:55:14;100325.31;;;23.96;35.09
46714;BME280;32445;51.376;10.874;2023-05-25T11:58:14;100317.56;;;24.19;34.49
46714;BME280;32445;51.376;10.874;2023-05-25T12:01:22;100314.66;;;24.48;34.36
46714;BME280;32445;51.376;10.874;2023-05-25T12:04:23;100314.94;;;24.69;33.34
46714;BME280;32445;51.376;10.874;2023-05-25T12:07:24;100307.94;;;24.92;32.93
46714;BME280;32445;51.376;10.874;2023-05-25T12:10:25;100311.56;;;25.15;35.16
46714;BME280;32445;51.376;10.874;2023-05-25T12:13:25;100310.13;;;25.22;33.58
46714;BME280;32445;51.376;10.874;2023-05-25T12:16:26;100302.63;;;25.16;33.03
46714;BME280;32445;51.376;10.874;2023-05-25T12:19:27;100301.16;;;25.12;33.06
46714;BME280;32445;51.376;10.874;2023-05-25T12:22:27;100293.69;;;25.17;33.86
46714;BME280;32445;51.376;10.874;2023-05-25T12:25:31;100304.09;;;25.45;33.86
46714;BME280;32445;51.376;10.874;2023-05-25T12:28:31;100309.22;;;25.70;32.37
46714;BME280;32445;51.376;10.874;2023-05-25T12:31:33;100300.03;;;25.86;32.04
46714;BME280;32445;51.376;10.874;2023-05-25T12:34:34;100308.66;;;25.89;30.66
46714;BME280;32445;51.376;10.874;2023-05-25T12:37:34;100304.41;;;25.87;31.04
46714;BME280;32445;51.376;10.874;2023-05-25T12:40:35;100303.78;;;25.83;31.78
46714;BME280;32445;51.376;10.874;2023-05-25T12:43:39;100295.72;;;25.85;31.80
46714;BME280;32445;51.376;10.874;2023-05-25T12:46:40;100294.47;;;25.89;32.24
46714;BME280;32445;51.376;10.874;2023-05-25T12:49:50;100295.22;;;25.91;32.48
46714;BME280;32445;51.376;10.874;2023-05-25T12:52:59;100285.78;;;25.98;33.14
46714;BME280;32445;51.376;10.874;2023-05-25T12:56:03;100291.41;;;26.06;32.18
46714;BME280;32445;51.376;10.874;2023-05-25T12:59:13;100287.03;;;26.17;31.70
46714;BME280;32445;51.376;10.874;2023-05-25T13:02:14;100290.16;;;26.33;31.81
46714;BME280;32445;51.376;10.874;2023-05-25T13:05:31;100287.22;;;26.59;32.45
46714;BME280;32445;51.376;10.874;2023-05-25T13:08:32;100278.75;;;26.76;32.10
46714;BME280;32445;51.376;10.874;2023-05-25T13:11:36;100276.44;;;27.04;30.57
46714;BME280;32445;51.376;10.874;2023-05-25T13:14:37;100273.81;;;27.25;30.57
46714;BME280;32445;51.376;10.874;2023-05-25T13:17:40;100289.25;;;27.43;30.55
46714;BME280;32445;51.376;10.874;2023-05-25T13:20:40;100274.03;;;27.55;30.78
46714;BME280;32445;51.376;10.874;2023-05-25T13:23:40;100275.31;;;27.60;31.09
46714;BME280;32445;51.376;10.874;2023-05-25T13:26:41;100272.53;;;27.62;31.33
46714;BME280;32445;51.376;10.874;2023-05-25T13:29:46;100268.94;;;27.73;31.32
46714;BME280;32445;51.376;10.874;2023-05-25T13:32:47;100266.88;;;27.86;30.77
46714;BME280;32445;51.376;10.874;2023-05-25T13:35:48;100266.94;;;27.96;29.64
46714;BME280;32445;51.376;10.874;2023-05-25T13:38:57;100264.88;;;28.00;30.12
46714;BME280;32445;51.376;10.874;2023-05-25T13:41:58;100259.66;;;27.98;29.78
46714;BME280;32445;51.376;10.874;2023-05-25T13:45:01;100264.41;;;27.94;30.07
46714;BME280;32445;51.376;10.874;2023-05-25T13:48:01;100267.34;;;27.91;30.25
46714;BME280;32445;51.376;10.874;2023-05-25T13:51:08;100264.50;;;27.83;29.46
46714;BME280;32445;51.376;10.874;2023-05-25T13:54:08;100256.03;;;27.78;30.49
46714;BME280;32445;51.376;10.874;2023-05-25T13:57:08;100257.28;;;27.74;29.10
46714;BME280;32445;51.376;10.874;2023-05-25T14:00:12;100249.28;;;27.74;30.53
46714;BME280;32445;51.376;10.874;2023-05-25T14:03:13;100256.28;;;27.96;30.04
46714;BME280;32445;51.376;10.874;2023-05-25T14:06:16;100257.44;;;28.03;29.91
46714;BME280;32445;51.376;10.874;2023-05-25T14:09:16;100251.84;;;28.06;29.59
46714;BME280;32445;51.376;10.874;2023-05-25T14:12:22;100244.66;;;28.07;30.00
46714;BME280;32445;51.376;10.874;2023-05-25T14:15:23;100250.28;;;28.04;29.97
46714;BME280;32445;51.376;10.874;2023-05-25T14:18:24;100234.25;;;28.04;30.44
46714;BME280;32445;51.376;10.874;2023-05-25T14:21:28;100233.06;;;28.18;30.16
46714;BME280;32445;51.376;10.874;2023-05-25T14:24:29;100228.44;;;28.29;29.67
46714;BME280;32445;51.376;10.874;2023-05-25T14:27:30;100233.25;;;28.45;29.21
46714;BME280;32445;51.376;10.874;2023-05-25T14:30:30;100232.00;;;28.59;29.53
46714;BME280;32445;51.376;10.874;2023-05-25T14:33:34;100228.78;;;28.65;28.59
46714;BME280;32445;51.376;10.874;2023-05-25T14:36:34;100232.34;;;28.66;28.86
46714;BME280;32445;51.376;10.874;2023-05-25T14:39:37;100239.09;;;28.70;27.95
46714;BME280;32445;51.376;10.874;2023-05-25T14:42:40;100235.56;;;28.79;29.19
46714;BME280;32445;51.376;10.874;2023-05-25T14:45:40;100229.66;;;28.86;28.53
46714;BME280;32445;51.376;10.874;2023-05-25T14:48:41;100235.00;;;28.95;27.95
46714;BME280;32445;51.376;10.874;2023-05-25T14:51:41;100232.59;;;28.82;28.75
46714;BME280;32445;51.376;10.874;2023-05-25T14:54:42;100234.59;;;28.80;29.25
46714;BME280;32445;51.376;10.874;2023-05-25T14:57:50;100234.56;;;28.71;28.93
46714;BME280;32445;51.376;10.874;2023-05-25T15:00:50;100233.47;;;28.73;28.76
46714;BME280;32445;51.376;10.874;2023-05-25T15:03:53;100232.06;;;28.79;29.63
46714;BME280;32445;51.376;10.874;2023-05-25T15:06:54;100241.34;;;28.85;29.72
46714;BME280;32445;51.376;10.874;2023-05-25T15:09:54;100237.81;;;28.84;29.68
46714;BME280;32445;51.376;10.874;2023-05-25T15:12:55;100233.31;;;28.85;29.23
46714;BME280;32445;51.376;10.874;2023-05-25T15:15:55;100238.38;;;28.88;30.12
46714;BME280;32445;51.376;10.874;2023-05-25T15:19:02;100235.00;;;28.95;29.39
46714;BME280;32445;51.376;10.874;2023-05-25T15:22:14;100237.94;;;29.12;28.69
46714;BME280;32445;51.376;10.874;2023-05-25T15:25:14;100230.19;;;29.18;28.56
46714;BME280;32445;51.376;10.874;2023-05-25T15:28:15;100225.00;;;29.27;29.25
46714;BME280;32445;51.376;10.874;2023-05-25T15:31:18;100228.66;;;29.26;29.11
46714;BME280;32445;51.376;10.874;2023-05-25T15:34:19;100224.72;;;29.20;28.64
46714;BME280;32445;51.376;10.874;2023-05-25T15:37:20;100220.34;;;29.09;28.65
46714;BME280;32445;51.376;10.874;2023-05-25T15:40:26;100216.44;;;28.94;28.47
46714;BME280;32445;51.376;10.874;2023-05-25T15:43:29;100219.25;;;28.82;28.78
46714;BME280;32445;51.376;10.874;2023-05-25T15:46:29;100208.69;;;28.71;29.71